Observation data for Levelland on 02/14/2017      Previous  Date  Next       Current Mesonet Observations  Soil Data  Daily Summary Page  Observations in Plain Language
KLD1 140600Z 34006KT 03/02 A3004 RMK A01 T00330018  RH  091%=      5-min Rain = 0
KLD1 140605Z 34006KT 03/02 A3004 RMK A01 T00330019  RH  091%=      5-min Rain = 0
KLD1 140610Z 34006KT 03/02 A3004 RMK A01 T00340019  RH  091%=      5-min Rain = 0
KLD1 140615Z 35006KT 03/02 A3004 RMK A01 T00340019  RH  091%=      5-min Rain = 0
KLD1 140620Z 35007KT 03/02 A3004 RMK A01 T00340019  RH  091%=      5-min Rain = 0
KLD1 140625Z 35009KT 03/02 A3003 RMK A01 T00340019  RH  091%=      5-min Rain = 0
KLD1 140630Z 35009KT 04/02 A3003 RMK A01 T00350019  RH  091%=      5-min Rain = 0
KLD1 140635Z 35009KT 04/02 A3004 RMK A01 T00350019  RH  091%=      5-min Rain = 0
KLD1 140640Z 35008KT 04/02 A3004 RMK A01 T00350019  RH  090%=      5-min Rain = 0
KLD1 140645Z 35006KT 04/02 A3004 RMK A01 T00350019  RH  091%=      5-min Rain = 0
KLD1 140650Z 34006KT 04/02 A3004 RMK A01 T00350020  RH  091%=      5-min Rain = 0
KLD1 140655Z 34007KT 04/02 A3004 RMK A01 T00350019  RH  091%=      5-min Rain = 0
KLD1 140700Z 34007KT 04/02 A3004 RMK A01 T00350019  RH  090%=      5-min Rain = 0
KLD1 140705Z 34008KT 04/02 A3004 RMK A01 T00350019  RH  090%=      5-min Rain = 0
KLD1 140710Z 34008KT 04/02 A3004 RMK A01 T00350018  RH  090%=      5-min Rain = 0
KLD1 140715Z 33009KT 04/02 A3004 RMK A01 T00350017  RH  089%=      5-min Rain = 0
KLD1 140720Z 34010KT 03/02 A3004 RMK A01 T00340016  RH  089%=      5-min Rain = 0
KLD1 140725Z 34011KT 03/01 A3003 RMK A01 T00340014  RH  088%=      5-min Rain = 0
KLD1 140730Z 34011KT 03/01 A3004 RMK A01 T00340013  RH  087%=      5-min Rain = 0
KLD1 140735Z 35011KT 03/01 A3004 RMK A01 T00340012  RH  087%=      5-min Rain = 0
KLD1 140740Z 35012KT 03/01 A3004 RMK A01 T00330011  RH  086%=      5-min Rain = 0
KLD1 140745Z 35011KT 03/01 A3003 RMK A01 T00330010  RH  086%=      5-min Rain = 0
KLD1 140750Z 34011KT 03/01 A3003 RMK A01 T00330009  RH  086%=      5-min Rain = 0
KLD1 140755Z 34010KT 03/01 A3003 RMK A01 T00330009  RH  086%=      5-min Rain = 0
KLD1 140800Z 34011KT 03/01 A3003 RMK A01 T00330010  RH  086%=      5-min Rain = 0
KLD1 140805Z 34011KT 03/01 A3003 RMK A01 T00330009  RH  085%=      5-min Rain = 0
KLD1 140810Z 35011KT 03/01 A3003 RMK A01 T00330009  RH  085%=      5-min Rain = 0
KLD1 140815Z 35011KT 03/01 A3003 RMK A01 T00330008  RH  085%=      5-min Rain = 0
KLD1 140820Z 34010KT 03/01 A3003 RMK A01 T00330009  RH  085%=      5-min Rain = 0
KLD1 140825Z 34010KT 03/01 A3003 RMK A01 T00330010  RH  086%=      5-min Rain = 0
KLD1 140830Z 34010KT 03/01 A3003 RMK A01 T00330010  RH  086%=      5-min Rain = 0
KLD1 140835Z 34010KT 03/01 A3003 RMK A01 T00330011  RH  086%=      5-min Rain = 0
KLD1 140840Z 33010KT 03/01 A3003 RMK A01 T00340012  RH  087%=      5-min Rain = 0
KLD1 140845Z 33009KT 03/01 A3003 RMK A01 T00340013  RH  087%=      5-min Rain = 0
KLD1 140850Z 33010KT 03/01 A3003 RMK A01 T00340014  RH  088%=      5-min Rain = 0
KLD1 140855Z 33010KT 03/02 A3002 RMK A01 T00340015  RH  088%=      5-min Rain = 0
KLD1 140900Z 33008KT 04/02 A3002 RMK A01 T00350016  RH  089%=      5-min Rain = 0
KLD1 140905Z 33010KT 04/02 A3002 RMK A01 T00350016  RH  089%=      5-min Rain = 0
KLD1 140910Z 33009KT 04/02 A3002 RMK A01 T00350017  RH  089%=      5-min Rain = 0
KLD1 140915Z 33009KT 04/02 A3003 RMK A01 T00360017  RH  089%=      5-min Rain = 0
KLD1 140920Z 34009KT 04/02 A3002 RMK A01 T00360017  RH  089%=      5-min Rain = 0
KLD1 140925Z 33011G16KT 04/02 A3002 RMK A01 T00360017  RH  088%=      5-min Rain = 0
KLD1 140930Z 34011G16KT 04/02 A3003 RMK A01 T00370016  RH  087%=      5-min Rain = 0
KLD1 140935Z 34011KT 04/02 A3003 RMK A01 T00370016  RH  087%=      5-min Rain = 0
KLD1 140940Z 34011KT 04/02 A3003 RMK A01 T00370015  RH  087%=      5-min Rain = 0
KLD1 140945Z 34013KT 04/01 A3003 RMK A01 T00370014  RH  086%=      5-min Rain = 0
KLD1 140950Z 34011KT 04/01 A3003 RMK A01 T00370014  RH  086%=      5-min Rain = 0
KLD1 140955Z 35011G16KT 04/01 A3003 RMK A01 T00370014  RH  086%=      5-min Rain = 0
KLD1 141000Z 35013KT 04/01 A3003 RMK A01 T00370013  RH  085%=      5-min Rain = 0
KLD1 141005Z 35011KT 04/01 A3003 RMK A01 T00370013  RH  085%=      5-min Rain = 0
KLD1 141010Z 35012KT 04/01 A3002 RMK A01 T00370012  RH  085%=      5-min Rain = 0
KLD1 141015Z 36011KT 04/01 A3002 RMK A01 T00360011  RH  084%=      5-min Rain = 0
KLD1 141020Z 36011KT 04/01 A3002 RMK A01 T00360009  RH  083%=      5-min Rain = 0
KLD1 141025Z 36012KT 04/01 A3002 RMK A01 T00360007  RH  083%=      5-min Rain = 0
KLD1 141030Z 36011KT 04/01 A3003 RMK A01 T00360006  RH  082%=      5-min Rain = 0
KLD1 141035Z 36012KT 04/00 A3003 RMK A01 T00350004  RH  081%=      5-min Rain = 0
KLD1 141040Z 36012KT 04/00 A3003 RMK A01 T00350003  RH  080%=      5-min Rain = 0
KLD1 141045Z 00012KT 04/00 A3003 RMK A01 T00350002  RH  080%=      5-min Rain = 0
KLD1 141050Z 00011KT 04/00 A3003 RMK A01 T00350002  RH  080%=      5-min Rain = 0
KLD1 141055Z 36011KT 03/00 A3003 RMK A01 T00340001  RH  080%=      5-min Rain = 0
KLD1 141100Z 00010G15KT 03/00 A3003 RMK A01 T00340001  RH  080%=      5-min Rain = 0
KLD1 141105Z 00010G15KT 03/00 A3003 RMK A01 T00340000  RH  079%=      5-min Rain = 0
KLD1 141110Z 36009KT 03/00 A3003 RMK A01 T00340001  RH  080%=      5-min Rain = 0
KLD1 141115Z 35009KT 03/00 A3003 RMK A01 T00340003  RH  081%=      5-min Rain = 0
KLD1 141120Z 35008KT 03/00 A3002 RMK A01 T00340003  RH  081%=      5-min Rain = 0
KLD1 141125Z 35008KT 03/00 A3002 RMK A01 T00340004  RH  082%=      5-min Rain = 0
KLD1 141130Z 35008KT 03/01 A3002 RMK A01 T00340005  RH  082%=      5-min Rain = 0
KLD1 141135Z 35008KT 03/01 A3002 RMK A01 T00340006  RH  083%=      5-min Rain = 0
KLD1 141140Z 36008KT 03/01 A3002 RMK A01 T00340006  RH  083%=      5-min Rain = 0
KLD1 141145Z 36007KT 03/01 A3002 RMK A01 T00340007  RH  083%=      5-min Rain = 0
KLD1 141150Z 35007KT 03/01 A3002 RMK A01 T00340008  RH  084%=      5-min Rain = 0
KLD1 141155Z 35007KT 03/01 A3002 RMK A01 T00340009  RH  084%=      5-min Rain = 0
KLD1 141200Z 36006KT 04/01 A3002 RMK A01 T00350010  RH  085%=      5-min Rain = 0
KLD1 141205Z 35006KT 04/01 A3002 RMK A01 T00350010  RH  085%=      5-min Rain = 0
KLD1 141210Z 35008KT 04/01 A3002 RMK A01 T00350011  RH  085%=      5-min Rain = 0
KLD1 141215Z 34009KT 04/01 A3002 RMK A01 T00350010  RH  085%=      5-min Rain = 0
KLD1 141220Z 35009KT 04/01 A3002 RMK A01 T00360010  RH  085%=      5-min Rain = 0
KLD1 141225Z 35011KT 04/01 A3002 RMK A01 T00350010  RH  084%=      5-min Rain = 0
KLD1 141230Z 35011KT 04/01 A3002 RMK A01 T00350009  RH  084%=      5-min Rain = 0
KLD1 141235Z 35009KT 03/01 A3002 RMK A01 T00340009  RH  085%=      5-min Rain = 0
KLD1 141240Z 34011KT 03/01 A3002 RMK A01 T00340010  RH  085%=      5-min Rain = 0
KLD1 141245Z 34010KT 04/01 A3002 RMK A01 T00350010  RH  085%=      5-min Rain = 0
KLD1 141250Z 33010KT 04/01 A3003 RMK A01 T00360011  RH  085%=      5-min Rain = 0
KLD1 141255Z 34010KT 04/01 A3003 RMK A01 T00360012  RH  085%=      5-min Rain = 0
KLD1 141300Z 34010KT 04/01 A3003 RMK A01 T00360012  RH  086%=      5-min Rain = 0
KLD1 141305Z 33009KT 04/01 A3003 RMK A01 T00360014  RH  086%=      5-min Rain = 0
KLD1 141310Z 33009KT 04/02 A3003 RMK A01 T00350015  RH  087%=      5-min Rain = 0
KLD1 141315Z 33009KT 04/02 A3004 RMK A01 T00350015  RH  088%=      5-min Rain = 0
KLD1 141320Z 34009G14KT 04/02 A3004 RMK A01 T00350016  RH  089%=      5-min Rain = 0
KLD1 141325Z 35012G17KT 04/02 A3004 RMK A01 T00350015  RH  088%=      5-min Rain = 0
KLD1 141330Z 36012KT 03/01 A3004 RMK A01 T00340011  RH  086%=      5-min Rain = 0
KLD1 141335Z 36012KT 03/01 A3005 RMK A01 T00330009  RH  085%=      5-min Rain = 0
KLD1 141340Z 36011KT 03/01 A3005 RMK A01 T00330009  RH  085%=      5-min Rain = 0
KLD1 141345Z 35013KT 03/01 A3005 RMK A01 T00330008  RH  085%=      5-min Rain = 0
KLD1 141350Z 35012KT 03/01 A3005 RMK A01 T00320007  RH  085%=      5-min Rain = 0
KLD1 141355Z 35011KT 03/01 A3006 RMK A01 T00310007  RH  085%=      5-min Rain = 0
KLD1 141400Z 35015KT 03/01 A3006 RMK A01 T00290007  RH  086%=      5-min Rain = 0
KLD1 141405Z 36012KT 03/01 A3006 RMK A01 T00280007  RH  088%=      5-min Rain = 0
KLD1 141410Z 35013KT 03/01 A3007 RMK A01 T00260008  RH  089%=      5-min Rain = 0
KLD1 141415Z 36013KT 03/01 A3007 RMK A01 T00250008  RH  090%=      5-min Rain = 0
KLD1 141420Z 35013KT 02/01 A3007 RMK A01 T00240008  RH  090%=      5-min Rain = 0
KLD1 141425Z 36012KT 02/01 A3007 RMK A01 T00230008  RH  090%=      5-min Rain = 0
KLD1 141430Z 35011KT 02/01 A3007 RMK A01 T00230008  RH  091%=      5-min Rain = 0
KLD1 141435Z 36009KT 02/01 A3008 RMK A01 T00220008  RH  091%=      5-min Rain = 0
KLD1 141440Z 36008KT 02/01 A3008 RMK A01 T00220009  RH  092%=      5-min Rain = 0.01
KLD1 141445Z 36010KT 02/01 A3008 RMK A01 T00230010  RH  092%=      5-min Rain = 0
KLD1 141450Z 35010KT 02/01 A3008 RMK A01 T00240012  RH  092%=      5-min Rain = 0
KLD1 141455Z 34010KT 03/01 A3008 RMK A01 T00250012  RH  092%=      5-min Rain = 0
KLD1 141500Z 33010KT 02/01 A3009 RMK A01 T00240012  RH  093%=      5-min Rain = 0.01
KLD1 141505Z 33013G19KT 02/01 A3009 RMK A01 T00240012  RH  093%=      5-min Rain = 0
KLD1 141510Z 33011G16KT 02/01 A3009 RMK A01 T00240011  RH  092%=      5-min Rain = 0.01
KLD1 141515Z 34014G19KT 02/01 A3009 RMK A01 T00240011  RH  092%=      5-min Rain = 0
KLD1 141520Z 35017G23KT 03/01 A3009 RMK A01 T00250012  RH  092%=      5-min Rain = 0
KLD1 141525Z 35017KT 02/01 A3009 RMK A01 T00240011  RH  092%=      5-min Rain = 0.01
KLD1 141530Z 35016G21KT 02/01 A3009 RMK A01 T00230009  RH  092%=      5-min Rain = 0.01
KLD1 141535Z 34014G19KT 02/01 A3009 RMK A01 T00230009  RH  092%=      5-min Rain = 0
KLD1 141540Z 35015KT 02/01 A3009 RMK A01 T00230010  RH  092%=      5-min Rain = 0
KLD1 141545Z 34016G21KT 02/01 A3009 RMK A01 T00240011  RH  092%=      5-min Rain = 0
KLD1 141550Z 34015KT 02/01 A3009 RMK A01 T00240011  RH  092%=      5-min Rain = 0.01
KLD1 141555Z 34017G22KT 02/01 A3009 RMK A01 T00230010  RH  092%=      5-min Rain = 0
KLD1 141600Z 35019G24KT 02/01 A301 RMK A01 T00230010  RH  092%=      5-min Rain = 0
KLD1 141605Z 34020G28KT 02/01 A301 RMK A01 T00240009  RH  091%=      5-min Rain = 0
KLD1 141610Z 35020G29KT 03/01 A3009 RMK A01 T00250010  RH  091%=      5-min Rain = 0.01
KLD1 141615Z 35021G27KT 02/01 A3009 RMK A01 T00240009  RH  091%=      5-min Rain = 0
KLD1 141620Z 35020G28KT 03/01 A301 RMK A01 T00250009  RH  091%=      5-min Rain = 0
KLD1 141625Z 34021G27KT 03/01 A301 RMK A01 T00250009  RH  091%=      5-min Rain = 0
KLD1 141630Z 35022G28KT 03/01 A301 RMK A01 T00250010  RH  091%=      5-min Rain = 0
KLD1 141635Z 35024G31KT 03/01 A3009 RMK A01 T00260010  RH  090%=      5-min Rain = 0
KLD1 141640Z 35025G33KT 03/01 A3009 RMK A01 T00270011  RH  090%=      5-min Rain = 0
KLD1 141645Z 35024G29KT 03/01 A301 RMK A01 T00270009  RH  089%=      5-min Rain = 0
KLD1 141650Z 35023G29KT 03/01 A301 RMK A01 T00250007  RH  089%=      5-min Rain = 0
KLD1 141655Z 35021G27KT 03/01 A301 RMK A01 T00260009  RH  090%=      5-min Rain = 0
KLD1 141700Z 36024G33KT 03/01 A301 RMK A01 T00250007  RH  089%=      5-min Rain = 0
KLD1 141705Z 36020G27KT 03/01 A301 RMK A01 T00260008  RH  089%=      5-min Rain = 0
KLD1 141710Z 36023G33KT 03/01 A3011 RMK A01 T00260008  RH  089%=      5-min Rain = 0
KLD1 141715Z 35024G32KT 03/01 A3011 RMK A01 T00260006  RH  088%=      5-min Rain = 0
KLD1 141720Z 35026G32KT 02/00 A3011 RMK A01 T00240004  RH  088%=      5-min Rain = 0
KLD1 141725Z 35023G34KT 02/01 A3011 RMK A01 T00240005  RH  088%=      5-min Rain = 0
KLD1 141730Z 36023G31KT 02/01 A3011 RMK A01 T00240005  RH  088%=      5-min Rain = 0
KLD1 141735Z 35022G29KT 02/01 A3011 RMK A01 T00240005  RH  089%=      5-min Rain = 0
KLD1 141740Z 35022G30KT 02/01 A3011 RMK A01 T00230005  RH  089%=      5-min Rain = 0
KLD1 141745Z 35024G29KT 02/00 A3011 RMK A01 T00230004  RH  088%=      5-min Rain = 0
KLD1 141750Z 35022G29KT 03/00 A3011 RMK A01 T00250004  RH  087%=      5-min Rain = 0
KLD1 141755Z 35024G31KT 03/00 A3011 RMK A01 T00260004  RH  086%=      5-min Rain = 0
KLD1 141800Z 35023G31KT 03/00 A3011 RMK A01 T00260001  RH  085%=      5-min Rain = 0
KLD1 141805Z 35024G30KT 03/00 A3011 RMK A01 T00260000  RH  084%=      5-min Rain = 0
KLD1 141810Z 36020G27KT 03/00 A3011 RMK A01 T00270002  RH  085%=      5-min Rain = 0
KLD1 141815Z 35022G29KT 03/00 A3011 RMK A01 T00280002  RH  084%=      5-min Rain = 0
KLD1 141820Z 35023G29KT 03/00 A3011 RMK A01 T002700-0  RH  083%=      5-min Rain = 0
KLD1 141825Z 35024G31KT 03/M00 A3011 RMK A01 T00261002  RH  083%=      5-min Rain = 0
KLD1 141830Z 35024G30KT 03/M00 A3012 RMK A01 T00271002  RH  082%=      5-min Rain = 0
KLD1 141835Z 35023G30KT 03/M00 A3012 RMK A01 T00271001  RH  083%=      5-min Rain = 0
KLD1 141840Z 35020G25KT 03/00 A3012 RMK A01 T00280000  RH  083%=      5-min Rain = 0
KLD1 141845Z 35018G24KT 03/00 A3012 RMK A01 T00280002  RH  084%=      5-min Rain = 0
KLD1 141850Z 34021G31KT 03/00 A3012 RMK A01 T00270000  RH  083%=      5-min Rain = 0
KLD1 141855Z 35020G30KT 03/M00 A3012 RMK A01 T00271002  RH  083%=      5-min Rain = 0
KLD1 141900Z 35021G27KT 03/M00 A3012 RMK A01 T00261002  RH  083%=      5-min Rain = 0
KLD1 141905Z 35022G31KT 03/M00 A3012 RMK A01 T00261003  RH  082%=      5-min Rain = 0
KLD1 141910Z 35018G26KT 03/M00 A3012 RMK A01 T00271002  RH  082%=      5-min Rain = 0
KLD1 141915Z 35018G24KT 03/M00 A3012 RMK A01 T00271002  RH  082%=      5-min Rain = 0
KLD1 141920Z 35020KT 03/M00 A3012 RMK A01 T00271002  RH  082%=      5-min Rain = 0
KLD1 141925Z 35020G26KT 03/M00 A3012 RMK A01 T00281001  RH  082%=      5-min Rain = 0
KLD1 141930Z 35022G29KT 03/M00 A3012 RMK A01 T00271003  RH  081%=      5-min Rain = 0
KLD1 141935Z 36021G28KT 03/M00 A3012 RMK A01 T00271004  RH  081%=      5-min Rain = 0
KLD1 141940Z 35022G27KT 03/M00 A3012 RMK A01 T00271003  RH  082%=      5-min Rain = 0
KLD1 141945Z 35024G30KT 03/M01 A3012 RMK A01 T00261007  RH  080%=      5-min Rain = 0
KLD1 141950Z 35023G29KT 03/M01 A3012 RMK A01 T00261007  RH  080%=      5-min Rain = 0
KLD1 141955Z 36024G30KT 03/M01 A3012 RMK A01 T00261008  RH  079%=      5-min Rain = 0
KLD1 142000Z 35022G27KT 03/M01 A3012 RMK A01 T00271007  RH  079%=      5-min Rain = 0
KLD1 142005Z 35022G30KT 03/M01 A3012 RMK A01 T00271008  RH  079%=      5-min Rain = 0
KLD1 142010Z 35020G27KT 03/M01 A3012 RMK A01 T00271007  RH  079%=      5-min Rain = 0
KLD1 142015Z 35022G27KT 03/M01 A3011 RMK A01 T00271009  RH  078%=      5-min Rain = 0
KLD1 142020Z 36022G27KT 03/M01 A3011 RMK A01 T00291009  RH  077%=      5-min Rain = 0
KLD1 142025Z 36021G29KT 03/M01 A3011 RMK A01 T00311007  RH  077%=      5-min Rain = 0
KLD1 142030Z 35022G29KT 03/M01 A3011 RMK A01 T00311008  RH  076%=      5-min Rain = 0
KLD1 142035Z 35020G25KT 03/M01 A3011 RMK A01 T00311006  RH  077%=      5-min Rain = 0
KLD1 142040Z 35019G25KT 03/M01 A3012 RMK A01 T00291008  RH  077%=      5-min Rain = 0
KLD1 142045Z 35022G27KT 03/M01 A3012 RMK A01 T00281011  RH  076%=      5-min Rain = 0
KLD1 142050Z 36022G30KT 03/M01 A3012 RMK A01 T00291012  RH  075%=      5-min Rain = 0
KLD1 142055Z 36023KT 03/M01 A3012 RMK A01 T00291013  RH  075%=      5-min Rain = 0
KLD1 142100Z 35020G26KT 03/M01 A3012 RMK A01 T00291012  RH  075%=      5-min Rain = 0
KLD1 142105Z 35021G27KT 03/M01 A3012 RMK A01 T00291012  RH  075%=      5-min Rain = 0
KLD1 142110Z 35022G27KT 03/M02 A3012 RMK A01 T00291016  RH  073%=      5-min Rain = 0
KLD1 142115Z 35020G26KT 03/M02 A3012 RMK A01 T00291016  RH  073%=      5-min Rain = 0
KLD1 142120Z 35022G28KT 03/M02 A3012 RMK A01 T00301016  RH  072%=      5-min Rain = 0
KLD1 142125Z 35019G24KT 03/M01 A3012 RMK A01 T00301014  RH  074%=      5-min Rain = 0
KLD1 142130Z 35020G25KT 03/M01 A3012 RMK A01 T00301013  RH  074%=      5-min Rain = 0
KLD1 142135Z 35019G25KT 03/M01 A3012 RMK A01 T00311014  RH  073%=      5-min Rain = 0
KLD1 142140Z 35019G25KT 03/M01 A3012 RMK A01 T00321014  RH  072%=      5-min Rain = 0
KLD1 142145Z 35019KT 03/M01 A3012 RMK A01 T00331013  RH  073%=      5-min Rain = 0
KLD1 142150Z 35020KT 03/M02 A3012 RMK A01 T00321015  RH  072%=      5-min Rain = 0
KLD1 142155Z 35020G27KT 03/M01 A3012 RMK A01 T00321014  RH  073%=      5-min Rain = 0
KLD1 142200Z 35018G25KT 03/M01 A3012 RMK A01 T00321014  RH  072%=      5-min Rain = 0
KLD1 142205Z 36019G26KT 03/M01 A3012 RMK A01 T00331014  RH  072%=      5-min Rain = 0
KLD1 142210Z 35020G25KT 03/M02 A3013 RMK A01 T00321016  RH  072%=      5-min Rain = 0
KLD1 142215Z 36018G24KT 03/M01 A3013 RMK A01 T00321014  RH  073%=      5-min Rain = 0
KLD1 142220Z 00019KT 03/M02 A3013 RMK A01 T00311015  RH  073%=      5-min Rain = 0
KLD1 142225Z 36018KT 03/M01 A3014 RMK A01 T00311014  RH  073%=      5-min Rain = 0
KLD1 142230Z 00017G23KT 03/M01 A3014 RMK A01 T00301013  RH  074%=      5-min Rain = 0
KLD1 142235Z 01018G26KT 03/M01 A3014 RMK A01 T00301013  RH  074%=      5-min Rain = 0
KLD1 142240Z 01018G23KT 03/M02 A3014 RMK A01 T00291015  RH  074%=      5-min Rain = 0
KLD1 142245Z 00021G27KT 03/M02 A3014 RMK A01 T00281016  RH  074%=      5-min Rain = 0
KLD1 142250Z 00019G25KT 03/M02 A3014 RMK A01 T00281016  RH  074%=      5-min Rain = 0
KLD1 142255Z 00019G26KT 03/M02 A3014 RMK A01 T00271018  RH  073%=      5-min Rain = 0
KLD1 142300Z 00017G22KT 03/M02 A3015 RMK A01 T00271017  RH  074%=      5-min Rain = 0
KLD1 142305Z 00018G23KT 03/M02 A3015 RMK A01 T00261018  RH  074%=      5-min Rain = 0
KLD1 142310Z 00017G23KT 03/M02 A3015 RMK A01 T00261018  RH  074%=      5-min Rain = 0
KLD1 142315Z 36016KT 03/M02 A3015 RMK A01 T00261018  RH  073%=      5-min Rain = 0
KLD1 142320Z 36015G21KT 03/M02 A3016 RMK A01 T00261019  RH  073%=      5-min Rain = 0
KLD1 142325Z 00015G20KT 03/M02 A3016 RMK A01 T00261019  RH  073%=      5-min Rain = 0
KLD1 142330Z 36015G20KT 03/M02 A3016 RMK A01 T00261019  RH  073%=      5-min Rain = 0
KLD1 142335Z 36015G21KT 03/M02 A3016 RMK A01 T00261019  RH  073%=      5-min Rain = 0
KLD1 142340Z 36015G20KT 03/M02 A3016 RMK A01 T00261020  RH  072%=      5-min Rain = 0
KLD1 142345Z 00014KT 03/M02 A3016 RMK A01 T00261020  RH  072%=      5-min Rain = 0
KLD1 142350Z 00014KT 03/M02 A3016 RMK A01 T00261020  RH  072%=      5-min Rain = 0
KLD1 142355Z 36011KT 03/M02 A3016 RMK A01 T00261019  RH  073%=      5-min Rain = 0
KLD1 150000Z 35011KT 03/M02 A3016 RMK A01 T00261018  RH  074%=      5-min Rain = 0
KLD1 150005Z 35010KT 03/M02 A3016 RMK A01 T00261016  RH  075%=      5-min Rain = 0
KLD1 150010Z 35010KT 03/M02 A3016 RMK A01 T00261016  RH  074%=      5-min Rain = 0
KLD1 150015Z 34012KT 03/M02 A3016 RMK A01 T00261017  RH  074%=      5-min Rain = 0
KLD1 150020Z 34012KT 03/M02 A3016 RMK A01 T00261019  RH  073%=      5-min Rain = 0
KLD1 150025Z 34013KT 03/M02 A3016 RMK A01 T00271020  RH  072%=      5-min Rain = 0
KLD1 150030Z 34012KT 03/M02 A3016 RMK A01 T00271020  RH  072%=      5-min Rain = 0
KLD1 150035Z 34011KT 03/M02 A3016 RMK A01 T00271019  RH  073%=      5-min Rain = 0
KLD1 150040Z 34010KT 03/M02 A3016 RMK A01 T00271017  RH  073%=      5-min Rain = 0
KLD1 150045Z 33009KT 03/M02 A3016 RMK A01 T00271016  RH  074%=      5-min Rain = 0
KLD1 150050Z 33007KT 03/M02 A3017 RMK A01 T00271015  RH  075%=      5-min Rain = 0
KLD1 150055Z 33009KT 03/M02 A3017 RMK A01 T00271015  RH  075%=      5-min Rain = 0
KLD1 150100Z 34009G14KT 03/M02 A3017 RMK A01 T00271015  RH  074%=      5-min Rain = 0
KLD1 150105Z 34009KT 03/M02 A3017 RMK A01 T00281015  RH  074%=      5-min Rain = 0
KLD1 150110Z 34010KT 03/M02 A3017 RMK A01 T00291016  RH  073%=      5-min Rain = 0
KLD1 150115Z 34008KT 03/M01 A3017 RMK A01 T00291014  RH  074%=      5-min Rain = 0
KLD1 150120Z 34008KT 03/M01 A3017 RMK A01 T00291014  RH  074%=      5-min Rain = 0
KLD1 150125Z 34009KT 03/M02 A3017 RMK A01 T00301015  RH  073%=      5-min Rain = 0
KLD1 150130Z 34009G14KT 03/M02 A3017 RMK A01 T00301015  RH  073%=      5-min Rain = 0
KLD1 150135Z 35009KT 03/M02 A3017 RMK A01 T00311015  RH  073%=      5-min Rain = 0
KLD1 150140Z 35010KT 03/M02 A3018 RMK A01 T00311016  RH  072%=      5-min Rain = 0
KLD1 150145Z 35010KT 03/M02 A3018 RMK A01 T00321017  RH  071%=      5-min Rain = 0
KLD1 150150Z 35010KT 03/M02 A3018 RMK A01 T00321016  RH  072%=      5-min Rain = 0
KLD1 150155Z 34009KT 03/M02 A3018 RMK A01 T00321016  RH  072%=      5-min Rain = 0
KLD1 150200Z 34009KT 03/M02 A3019 RMK A01 T00311015  RH  073%=      5-min Rain = 0
KLD1 150205Z 34008KT 03/M01 A3019 RMK A01 T00311014  RH  073%=      5-min Rain = 0
KLD1 150210Z 34009KT 03/M02 A3019 RMK A01 T00301015  RH  073%=      5-min Rain = 0
KLD1 150215Z 34009KT 03/M02 A3019 RMK A01 T00301016  RH  072%=      5-min Rain = 0
KLD1 150220Z 34008KT 03/M02 A3019 RMK A01 T00301016  RH  073%=      5-min Rain = 0
KLD1 150225Z 34009KT 03/M02 A3019 RMK A01 T00301015  RH  073%=      5-min Rain = 0
KLD1 150230Z 34010KT 03/M02 A3019 RMK A01 T00311016  RH  072%=      5-min Rain = 0
KLD1 150235Z 34009KT 03/M02 A3019 RMK A01 T00311015  RH  072%=      5-min Rain = 0
KLD1 150240Z 34009KT 03/M02 A3019 RMK A01 T00311015  RH  073%=      5-min Rain = 0
KLD1 150245Z 34009KT 03/M01 A302 RMK A01 T00311014  RH  073%=      5-min Rain = 0
KLD1 150250Z 34009KT 03/M02 A302 RMK A01 T00311015  RH  073%=      5-min Rain = 0
KLD1 150255Z 34009KT 03/M02 A302 RMK A01 T00311015  RH  073%=      5-min Rain = 0
KLD1 150300Z 34008KT 03/M02 A302 RMK A01 T00311015  RH  073%=      5-min Rain = 0
KLD1 150305Z 34008KT 03/M02 A302 RMK A01 T00311016  RH  072%=      5-min Rain = 0
KLD1 150310Z 33008KT 03/M02 A302 RMK A01 T00321016  RH  072%=      5-min Rain = 0
KLD1 150315Z 33008KT 03/M02 A302 RMK A01 T00311015  RH  072%=      5-min Rain = 0
KLD1 150320Z 32008KT 03/M02 A302 RMK A01 T00311015  RH  073%=      5-min Rain = 0
KLD1 150325Z 32007KT 03/M01 A302 RMK A01 T00301014  RH  073%=      5-min Rain = 0
KLD1 150330Z 31007KT 03/M01 A302 RMK A01 T00291013  RH  075%=      5-min Rain = 0
KLD1 150335Z 31007KT 03/M01 A302 RMK A01 T00291011  RH  076%=      5-min Rain = 0
KLD1 150340Z 31007KT 03/M01 A302 RMK A01 T00281011  RH  077%=      5-min Rain = 0
KLD1 150345Z 30008KT 03/M01 A302 RMK A01 T00281010  RH  077%=      5-min Rain = 0
KLD1 150350Z 30009KT 03/M01 A302 RMK A01 T00271010  RH  078%=      5-min Rain = 0.01
KLD1 150355Z 30008KT 03/M01 A302 RMK A01 T00261010  RH  078%=      5-min Rain = 0
KLD1 150400Z 30008KT 03/M01 A302 RMK A01 T00261011  RH  078%=      5-min Rain = 0
KLD1 150405Z 31008KT 03/M01 A302 RMK A01 T00261012  RH  077%=      5-min Rain = 0
KLD1 150410Z 31008KT 03/M01 A302 RMK A01 T00251012  RH  077%=      5-min Rain = 0
KLD1 150415Z 31007KT 02/M01 A302 RMK A01 T00231013  RH  078%=      5-min Rain = 0
KLD1 150420Z 31008KT 02/M02 A302 RMK A01 T00211015  RH  078%=      5-min Rain = 0
KLD1 150425Z 31008KT 02/M02 A302 RMK A01 T00171017  RH  079%=      5-min Rain = 0
KLD1 150430Z 31007KT 01/M02 A302 RMK A01 T00141018  RH  080%=      5-min Rain = 0
KLD1 150435Z 31008KT 01/M02 A302 RMK A01 T00111019  RH  081%=      5-min Rain = 0
KLD1 150440Z 31007KT 01/M02 A302 RMK A01 T00091020  RH  082%=      5-min Rain = 0
KLD1 150445Z 30008KT 01/M02 A302 RMK A01 T00061021  RH  083%=      5-min Rain = 0
KLD1 150450Z 31008KT 01/M02 A302 RMK A01 T00051021  RH  084%=      5-min Rain = 0
KLD1 150455Z 30008KT 01/M02 A302 RMK A01 T00061021  RH  084%=      5-min Rain = 0
KLD1 150500Z 30008KT 01/M02 A302 RMK A01 T00061020  RH  083%=      5-min Rain = 0
KLD1 150505Z 30008KT 01/M02 A302 RMK A01 T00061021  RH  083%=      5-min Rain = 0
KLD1 150510Z 30008KT 01/M02 A302 RMK A01 T00061021  RH  083%=      5-min Rain = 0
KLD1 150515Z 30008KT 01/M02 A3019 RMK A01 T00051022  RH  083%=      5-min Rain = 0
KLD1 150520Z 31008KT 01/M02 A302 RMK A01 T00051022  RH  083%=      5-min Rain = 0
KLD1 150525Z 30008KT 01/M02 A302 RMK A01 T00051023  RH  083%=      5-min Rain = 0
KLD1 150530Z 30009KT 01/M02 A302 RMK A01 T00051023  RH  082%=      5-min Rain = 0
KLD1 150535Z 31009KT 01/M02 A302 RMK A01 T00051024  RH  082%=      5-min Rain = 0
KLD1 150540Z 31009KT 00/M03 A302 RMK A01 T00041025  RH  082%=      5-min Rain = 0
KLD1 150545Z 31009KT 00/M03 A302 RMK A01 T00031025  RH  082%=      5-min Rain = 0
KLD1 150550Z 31009KT 00/M03 A302 RMK A01 T00021025  RH  083%=      5-min Rain = 0
KLD1 150555Z 31009KT 00/M03 A302 RMK A01 T00021025  RH  083%=      5-min Rain = 0

Page generated in 0.0166 seconds.